CLY weather

Calvi-Sainte-Catherine Airport
Calvi/Sainte-Catherine, Corsica, France

Public forecast

Using degrees Celsius for public forecast. Weather courtesy of forecast.io.

Current aviation weather report (METAR) for Calvi-Sainte-Catherine Airport

Retrieved 2020/02/18 14:30 UTC (1 hour ago):

LFKC 181430Z AUTO 21009KT CAVOK 15/07 Q1023 NOSIG

Aviation forecast (TAF) for Calvi-Sainte-Catherine Airport

Retrieved 2020/02/18 15:21 UTC (15 minutes ago):

TAF LFKC 181400Z 1815/1915 21010KT 9999 NSC TX17/1912Z TN07/1904Z BECMG 1821/1824 18004KT BECMG 1908/1911 22012KT